Arcadia, Pennsylvania
Current Conditions -  °F | °C
As of 12:35 PM on Saturday 25 Oct 2014 (Local Time) from KIDI Reporting Station
Overcast Overcast  
Wind Chill: 59°   Ceiling: 2500
Heat Index: 59°   Visibility: 10mi
Dew Point: 48°   Wind: 13mph
Humidity: 67%   Direction: 280°W
Pressure: 29.92"   Gusts: 22mph
Location:  40.78°N, 78.85°W
Report Text: KIDI 251635Z AUTO 28011G19KT 10SM OVC025 15/09 A2992 RMK A01
Loading
Personal Weather Stations






























Interactive Weather Map
Tropical Storm Tracking
New forecast layout! Learn more

10-Day Weather Forecast

Advertisements
Track Severe Weather on mobile